Wan Hai 515 — 9V7581 — position and weather

sailwx.info

Track history (hours):
 
Tides and Currents Weather Stations Pressure Air Temp Water Temp Dewpoint Dewpoint Depression Visibility Wind Speed Wind Dir Waves Ship Positions

Wan Hai 515

Last reported at 2017-Nov-19 20:49 UTC. Time now 2017-Nov-22 22:07 UTC.
Position N 22°20' E 114°08'.

Length 259 m; draft 9.7 m.

Type: Cargo ship. MMSI: 566828000.

Date/timePositionNaut miles runAvg speedWind from/ knotsBaromVisibWave heightAir tempDewpointWater temp
2017-Nov-19 20:49N 22°20' E 114°08'0 0.0
2017-Nov-19 18:49N 22°20' E 114°08'0 0.0
2017-Nov-19 18:25N 22°20' E 114°08'1 0.7
2017-Nov-19 17:23N 22°19' E 114°07'2 4.4
2017-Nov-19 16:54N 22°18' E 114°05'4 4.1
2017-Nov-19 15:57N 22°22' E 114°04'613.9
2017-Nov-19 15:30N 22°21' E 113°57'510.1
2017-Nov-19 15:00N 22°24' E 113°53'3 6.3
2017-Nov-19 14:30N 22°27' E 113°54'0 0.4
2017-Nov-19 13:58N 22°27' E 113°54'0 0.0
2017-Nov-19 13:28N 22°27' E 113°54'0 0.0
2017-Nov-19 12:58N 22°27' E 113°54'0 0.0
2017-Nov-19 12:28N 22°27' E 113°54'0 0.0
2017-Nov-19 11:58N 22°27' E 113°54'0 0.0
2017-Nov-19 11:31N 22°27' E 113°54'0 0.0
2017-Nov-19 10:58N 22°27' E 113°54'0 0.0
2017-Nov-19 10:28N 22°27' E 113°54'0 0.0
2017-Nov-19 10:01N 22°27' E 113°54'0 0.0
2017-Nov-19 09:28N 22°27' E 113°54'0 0.0
2017-Nov-19 08:55N 22°27' E 113°54'0 0.0
2017-Nov-19 08:28N 22°27' E 113°54'0 0.0
2017-Nov-19 07:55N 22°27' E 113°54'0 0.0
2017-Nov-19 07:25N 22°27' E 113°54'0 0.0
2017-Nov-19 07:01N 22°27' E 113°54'0 0.0
2017-Nov-19 06:28N 22°27' E 113°54'0 0.0
2017-Nov-19 05:58N 22°27' E 113°54'0 0.0
2017-Nov-19 05:28N 22°27' E 113°54'0 0.0
2017-Nov-19 05:01N 22°27' E 113°54'0 0.0
2017-Nov-19 04:28N 22°27' E 113°54'0 0.0
2017-Nov-19 04:01N 22°27' E 113°54'0 0.0
2017-Nov-19 03:28N 22°27' E 113°54'0 0.0
2017-Nov-19 02:58N 22°27' E 113°54'0 0.0
2017-Nov-19 02:28N 22°27' E 113°54'0 0.0
2017-Nov-19 01:58N 22°27' E 113°54'0 0.0
2017-Nov-19 01:28N 22°27' E 113°54'0 0.0
2017-Nov-19 01:01N 22°27' E 113°54'0 0.0
2017-Nov-19 00:28N 22°27' E 113°54'0 0.0
2017-Nov-18 23:58N 22°27' E 113°54'0 0.0
2017-Nov-18 23:28N 22°27' E 113°54'0 0.0
2017-Nov-18 23:00N 22°27' E 113°54'2 3.6
2017-Nov-18 22:30N 22°26' E 113°53'2 4.0
2017-Nov-18 22:00N 22°24' E 113°54'5 9.2
2017-Nov-18 21:30N 22°21' E 113°58'712.4
2017-Nov-18 20:57N 22°20' E 114°05'4 9.5
2017-Nov-18 20:29N 22°16' E 114°07'5 9.4
2017-Nov-18 20:00N 22°13' E 114°10'3 5.8
2017-Nov-18 19:31N 22°10' E 114°12'4 7.7
2017-Nov-18 18:59N 22°08' E 114°16'4 8.4
2017-Nov-18 18:31N 22°08' E 114°20'4 8.8
2017-Nov-18 18:01N 22°08' E 114°25'612.4
2017-Nov-18 17:30N 22°09' E 114°31'612.8
2017-Nov-18 17:00N 22°10' E 114°38'815.4
2017-Nov-18 16:30N 22°11' E 114°46'815.3
2017-Nov-18 16:00N 22°12' E 114°55'815.3
2017-Nov-18 15:30N 22°14' E 115°03'815.3
2017-Nov-18 15:00N 22°15' E 115°11'815.5
2017-Nov-18 14:30N 22°17' E 115°19'15 9.9
2017-Nov-18 13:00N 22°21' E 115°35'2 2.6
2017-Nov-18 12:21N 22°22' E 115°36'3 3.6
2017-Nov-18 11:25N 22°21' E 115°40'23315.2
2017-Nov-17 20:04N 22°32' E 119°52'215.5
2017-Nov-17 19:55N 22°32' E 119°54'715.5
2017-Nov-17 19:30N 22°32' E 120°01'815.5
2017-Nov-17 19:00N 22°32' E 120°10'612.1
2017-Nov-17 18:30N 22°33' E 120°16'3 5.1
2017-Nov-17 17:58N 22°33' E 120°19'1 1.8
2017-Nov-17 17:19N 22°34' E 120°18'0 0.0
2017-Nov-17 16:54N 22°34' E 120°18'0 0.0
2017-Nov-17 16:30N 22°34' E 120°18'0 0.0
2017-Nov-17 14:18N 22°34' E 120°18'0 0.0
2017-Nov-17 13:51N 22°34' E 120°18'0 0.0
2017-Nov-17 13:30N 22°34' E 120°18'0 0.0
2017-Nov-17 13:00N 22°34' E 120°18'0 0.0
2017-Nov-17 12:27N 22°34' E 120°18'0 0.0
2017-Nov-17 12:00N 22°34' E 120°18'0 0.0
2017-Nov-17 11:30N 22°34' E 120°18'0 0.0
2017-Nov-17 11:00N 22°34' E 120°18'0 0.0
2017-Nov-17 10:30N 22°34' E 120°18'0 0.0
2017-Nov-17 09:54N 22°34' E 120°18'0 0.0
2017-Nov-17 09:30N 22°34' E 120°18'0 0.0
2017-Nov-17 08:57N 22°34' E 120°18'0 0.0
2017-Nov-17 08:27N 22°34' E 120°18'0 0.0
2017-Nov-17 08:00N 22°34' E 120°18'0 0.0
2017-Nov-17 07:18N 22°34' E 120°18'0 0.0
2017-Nov-17 06:54N 22°34' E 120°18'0 0.0
2017-Nov-17 06:30N 22°34' E 120°18'0 0.0
2017-Nov-17 06:00N 22°34' E 120°18'0 0.0
2017-Nov-17 05:27N 22°34' E 120°18'0 0.0
2017-Nov-17 05:00N 22°34' E 120°18'0 0.0
2017-Nov-17 04:27N 22°34' E 120°18'0 0.7
2017-Nov-17 04:00N 22°34' E 120°19'2 4.7
2017-Nov-17 03:30N 22°33' E 120°17'1 2.6
2017-Nov-17 03:00N 22°32' E 120°15'2 4.5
2017-Nov-17 02:30N 22°31' E 120°13'0 0.8
2017-Nov-17 02:00N 22°31' E 120°13'2 4.0
2017-Nov-17 01:30N 22°32' E 120°11'0 0.3
2017-Nov-17 01:00N 22°32' E 120°11'0 0.3
2017-Nov-17 00:30N 22°33' E 120°12'0 0.4
2017-Nov-17 00:00N 22°33' E 120°12'3 5.1
2017-Nov-16 23:30N 22°34' E 120°09'612.6
2017-Nov-16 23:00N 22°40' E 120°06'714.4
2017-Nov-16 22:30N 22°46' E 120°03'  
Track history (hours):
 
Tides and Currents Weather Stations Pressure Air Temp Water Temp Dewpoint Dewpoint Depression Visibility Wind Speed Wind Dir Waves Ship Positions

Wan Hai 515

Last reported at 2017-Nov-19 20:49 UTC. Time now 2017-Nov-22 22:07 UTC.
Position N 22°20' E 114°08'.

Length 259 m; draft 9.7 m.

Type: Cargo ship. MMSI: 566828000.

Date/timePositionNaut miles runAvg speedWind from/ knotsBaromVisibWave heightAir tempDewpointWater temp
2017-Nov-19 20:49N 22°20' E 114°08'0 0.0
2017-Nov-19 18:49N 22°20' E 114°08'0 0.0
2017-Nov-19 18:25N 22°20' E 114°08'1 0.7
2017-Nov-19 17:23N 22°19' E 114°07'2 4.4
2017-Nov-19 16:54N 22°18' E 114°05'4 4.1
2017-Nov-19 15:57N 22°22' E 114°04'613.9
2017-Nov-19 15:30N 22°21' E 113°57'510.1
2017-Nov-19 15:00N 22°24' E 113°53'3 6.3
2017-Nov-19 14:30N 22°27' E 113°54'0 0.4
2017-Nov-19 13:58N 22°27' E 113°54'0 0.0
2017-Nov-19 13:28N 22°27' E 113°54'0 0.0
2017-Nov-19 12:58N 22°27' E 113°54'0 0.0
2017-Nov-19 12:28N 22°27' E 113°54'0 0.0
2017-Nov-19 11:58N 22°27' E 113°54'0 0.0
2017-Nov-19 11:31N 22°27' E 113°54'0 0.0
2017-Nov-19 10:58N 22°27' E 113°54'0 0.0
2017-Nov-19 10:28N 22°27' E 113°54'0 0.0
2017-Nov-19 10:01N 22°27' E 113°54'0 0.0
2017-Nov-19 09:28N 22°27' E 113°54'0 0.0
2017-Nov-19 08:55N 22°27' E 113°54'0 0.0
2017-Nov-19 08:28N 22°27' E 113°54'0 0.0
2017-Nov-19 07:55N 22°27' E 113°54'0 0.0
2017-Nov-19 07:25N 22°27' E 113°54'0 0.0
2017-Nov-19 07:01N 22°27' E 113°54'0 0.0
2017-Nov-19 06:28N 22°27' E 113°54'0 0.0
2017-Nov-19 05:58N 22°27' E 113°54'0 0.0
2017-Nov-19 05:28N 22°27' E 113°54'0 0.0
2017-Nov-19 05:01N 22°27' E 113°54'0 0.0
2017-Nov-19 04:28N 22°27' E 113°54'0 0.0
2017-Nov-19 04:01N 22°27' E 113°54'0 0.0
2017-Nov-19 03:28N 22°27' E 113°54'0 0.0
2017-Nov-19 02:58N 22°27' E 113°54'0 0.0
2017-Nov-19 02:28N 22°27' E 113°54'0 0.0
2017-Nov-19 01:58N 22°27' E 113°54'0 0.0
2017-Nov-19 01:28N 22°27' E 113°54'0 0.0
2017-Nov-19 01:01N 22°27' E 113°54'0 0.0
2017-Nov-19 00:28N 22°27' E 113°54'0 0.0
2017-Nov-18 23:58N 22°27' E 113°54'0 0.0
2017-Nov-18 23:28N 22°27' E 113°54'0 0.0
2017-Nov-18 23:00N 22°27' E 113°54'2 3.6
2017-Nov-18 22:30N 22°26' E 113°53'2 4.0
2017-Nov-18 22:00N 22°24' E 113°54'5 9.2
2017-Nov-18 21:30N 22°21' E 113°58'712.4
2017-Nov-18 20:57N 22°20' E 114°05'4 9.5
2017-Nov-18 20:29N 22°16' E 114°07'5 9.4
2017-Nov-18 20:00N 22°13' E 114°10'3 5.8
2017-Nov-18 19:31N 22°10' E 114°12'4 7.7
2017-Nov-18 18:59N 22°08' E 114°16'4 8.4
2017-Nov-18 18:31N 22°08' E 114°20'4 8.8
2017-Nov-18 18:01N 22°08' E 114°25'612.4
2017-Nov-18 17:30N 22°09' E 114°31'612.8
2017-Nov-18 17:00N 22°10' E 114°38'815.4
2017-Nov-18 16:30N 22°11' E 114°46'815.3
2017-Nov-18 16:00N 22°12' E 114°55'815.3
2017-Nov-18 15:30N 22°14' E 115°03'815.3
2017-Nov-18 15:00N 22°15' E 115°11'815.5
2017-Nov-18 14:30N 22°17' E 115°19'15 9.9
2017-Nov-18 13:00N 22°21' E 115°35'2 2.6
2017-Nov-18 12:21N 22°22' E 115°36'3 3.6
2017-Nov-18 11:25N 22°21' E 115°40'23315.2
2017-Nov-17 20:04N 22°32' E 119°52'215.5
2017-Nov-17 19:55N 22°32' E 119°54'715.5
2017-Nov-17 19:30N 22°32' E 120°01'815.5
2017-Nov-17 19:00N 22°32' E 120°10'612.1
2017-Nov-17 18:30N 22°33' E 120°16'3 5.1
2017-Nov-17 17:58N 22°33' E 120°19'1 1.8
2017-Nov-17 17:19N 22°34' E 120°18'0 0.0
2017-Nov-17 16:54N 22°34' E 120°18'0 0.0
2017-Nov-17 16:30N 22°34' E 120°18'0 0.0
2017-Nov-17 14:18N 22°34' E 120°18'0 0.0
2017-Nov-17 13:51N 22°34' E 120°18'0 0.0
2017-Nov-17 13:30N 22°34' E 120°18'0 0.0
2017-Nov-17 13:00N 22°34' E 120°18'0 0.0
2017-Nov-17 12:27N 22°34' E 120°18'0 0.0
2017-Nov-17 12:00N 22°34' E 120°18'0 0.0
2017-Nov-17 11:30N 22°34' E 120°18'0 0.0
2017-Nov-17 11:00N 22°34' E 120°18'0 0.0
2017-Nov-17 10:30N 22°34' E 120°18'0 0.0
2017-Nov-17 09:54N 22°34' E 120°18'0 0.0
2017-Nov-17 09:30N 22°34' E 120°18'0 0.0
2017-Nov-17 08:57N 22°34' E 120°18'0 0.0
2017-Nov-17 08:27N 22°34' E 120°18'0 0.0
2017-Nov-17 08:00N 22°34' E 120°18'0 0.0
2017-Nov-17 07:18N 22°34' E 120°18'0 0.0
2017-Nov-17 06:54N 22°34' E 120°18'0 0.0
2017-Nov-17 06:30N 22°34' E 120°18'0 0.0
2017-Nov-17 06:00N 22°34' E 120°18'0 0.0
2017-Nov-17 05:27N 22°34' E 120°18'0 0.0
2017-Nov-17 05:00N 22°34' E 120°18'0 0.0
2017-Nov-17 04:27N 22°34' E 120°18'0 0.7
2017-Nov-17 04:00N 22°34' E 120°19'2 4.7
2017-Nov-17 03:30N 22°33' E 120°17'1 2.6
2017-Nov-17 03:00N 22°32' E 120°15'2 4.5
2017-Nov-17 02:30N 22°31' E 120°13'0 0.8
2017-Nov-17 02:00N 22°31' E 120°13'2 4.0
2017-Nov-17 01:30N 22°32' E 120°11'0 0.3
2017-Nov-17 01:00N 22°32' E 120°11'0 0.3
2017-Nov-17 00:30N 22°33' E 120°12'0 0.4
2017-Nov-17 00:00N 22°33' E 120°12'3 5.1
2017-Nov-16 23:30N 22°34' E 120°09'612.6
2017-Nov-16 23:00N 22°40' E 120°06'714.4
2017-Nov-16 22:30N 22°46' E 120°03'  

Dump ship's entire track history